Time;durP1;ratioP1;P1;durP2;ratioP2;P2;SDS_P1;SDS_P2;PMS_P1;PMS_P2;Temp;Humidity;BMP_temperature;BMP_pressure;BME280_temperature;BME280_humidity;BME280_pressure;Samples;Min_cycle;Max_cycle;Signal;HPM_P1;HPM_P2
2022/09/21 00:00:49;;;;;;;;;;;9.50;85.60;;;;;;5062456;28;19959;-78
2022/09/21 00:03:15;;;;;;;;;;;9.40;85.80;;;;;;5039676;28;19917;-77
2022/09/21 00:05:40;;;;;;;;;;;9.30;85.80;;;;;;5049200;28;20138;-77
2022/09/21 00:08:06;;;;;;;;;;;9.40;85.40;;;;;;5039720;28;19922;-78
2022/09/21 00:10:32;;;;;;;;;;;9.30;85.40;;;;;;5056564;28;19917;-78
2022/09/21 00:12:58;;;;;;;;;;;9.40;85.70;;;;;;5036540;28;20364;-79
2022/09/21 00:15:23;;;;;;;;;;;9.50;85.40;;;;;;5043007;28;20375;-78
2022/09/21 00:17:51;;;;;;;;;;;9.50;85.10;;;;;;5045555;28;20355;-78
2022/09/21 00:20:17;;;;;;;;;;;9.40;85.00;;;;;;5061481;28;20321;-78
2022/09/21 00:22:43;;;;;;;;;;;9.40;85.00;;;;;;5044199;28;19921;-78
2022/09/21 00:25:08;;;;;;;;;;;9.50;84.90;;;;;;5066200;28;19912;-78
2022/09/21 00:27:34;;;;;;;;;;;9.50;84.60;;;;;;5039051;28;20023;-79
2022/09/21 00:30:01;;;;;;;;;;;9.50;84.50;;;;;;5061802;28;19916;-78
2022/09/21 00:32:27;;;;;;;;;;;9.40;84.70;;;;;;5039970;28;19920;-78
2022/09/21 00:34:52;;;;;;;;;;;9.30;85.20;;;;;;5066737;28;19913;-77
2022/09/21 00:37:18;;;;;;;;;;;9.30;85.30;;;;;;5062327;28;20023;-78
2022/09/21 00:39:44;;;;;;;;;;;9.20;85.40;;;;;;5056759;28;19913;-78
2022/09/21 00:42:15;;;;;;;;;;;9.30;85.60;;;;;;5062445;28;20402;-78
2022/09/21 00:44:41;;;;;;;;;;;9.20;85.80;;;;;;5037846;22;20283;-82
2022/09/21 00:47:10;;;;;;;;;;;9.20;86.00;;;;;;5065139;28;19923;-82
2022/09/21 00:49:36;;;;;;;;;;;9.20;86.00;;;;;;5052191;28;20376;-82
2022/09/21 00:52:04;;;;;;;;;;;9.20;85.90;;;;;;5056393;28;19919;-82
2022/09/21 00:54:35;;;;;;;;;;;9.20;85.90;;;;;;5051283;28;20339;-82
2022/09/21 00:57:01;;;;;;;;;;;9.20;85.70;;;;;;5035705;28;20295;-82
2022/09/21 00:59:29;;;;;;;;;;;9.20;85.80;;;;;;5052475;28;19962;-82
2022/09/21 01:01:55;;;;;;;;;;;9.20;85.60;;;;;;5049618;28;19935;-82
2022/09/21 01:04:20;;;;;;;;;;;9.20;85.00;;;;;;5051524;28;19913;-82
2022/09/21 01:06:46;;;;;;;;;;;9.30;84.50;;;;;;5047654;28;20224;-81
2022/09/21 01:09:12;;;;;;;;;;;9.20;84.60;;;;;;5030919;28;19913;-81
2022/09/21 01:11:44;;;;;;;;;;;9.10;84.90;;;;;;5032327;28;19917;-81
2022/09/21 01:14:18;;;;;;;;;;;9.20;85.00;;;;;;5053018;28;20297;-80
2022/09/21 01:16:46;;;;;;;;;;;9.10;84.80;;;;;;5048631;28;19920;-81
2022/09/21 01:19:21;;;;;;;;;;;9.10;85.20;;;;;;5035138;28;19917;-81
2022/09/21 01:22:13;;;;;;;;;;;9.00;85.30;;;;;;5031051;28;20022;-81
2022/09/21 01:24:50;;;;;;;;;;;9.00;85.70;;;;;;5044057;28;20403;-81
2022/09/21 01:27:31;;;;;;;;;;;9.00;85.20;;;;;;5042420;28;19923;-79
2022/09/21 01:29:57;;;;;;;;;;;9.00;84.90;;;;;;5063011;28;19931;-80
2022/09/21 01:32:41;;;;;;;;;;;9.00;85.00;;;;;;5043961;28;19913;-81
2022/09/21 01:35:18;;;;;;;;;;;9.00;84.80;;;;;;5038396;28;19926;-81
2022/09/21 01:37:46;;;;;;;;;;;8.90;84.90;;;;;;5049909;28;19941;-81
2022/09/21 01:40:24;;;;;;;;;;;8.90;85.20;;;;;;5055412;28;19961;-81
2022/09/21 01:42:50;;;;;;;;;;;8.90;85.10;;;;;;5051900;28;20027;-81
2022/09/21 01:45:17;;;;;;;;;;;8.80;85.20;;;;;;5063333;28;19924;-79
2022/09/21 01:47:45;;;;;;;;;;;8.80;85.50;;;;;;5042444;28;19913;-81
2022/09/21 01:50:12;;;;;;;;;;;8.90;84.90;;;;;;5051717;28;19921;-81
2022/09/21 01:52:41;;;;;;;;;;;8.90;84.20;;;;;;5052727;28;20371;-81
2022/09/21 01:55:09;;;;;;;;;;;8.80;84.50;;;;;;5036055;28;19952;-81
2022/09/21 01:57:40;;;;;;;;;;;8.50;84.80;;;;;;5051958;28;20362;-81
2022/09/21 02:00:07;;;;;;;;;;;8.30;85.00;;;;;;5045863;28;19997;-81
2022/09/21 02:02:45;;;;;;;;;;;8.30;85.20;;;;;;5035081;28;19917;-81
2022/09/21 02:05:11;;;;;;;;;;;8.40;85.10;;;;;;5033739;28;19916;-81
2022/09/21 02:07:38;;;;;;;;;;;8.40;85.00;;;;;;5034351;28;19921;-82
2022/09/21 02:10:05;;;;;;;;;;;8.50;84.90;;;;;;5051231;28;20062;-82
2022/09/21 02:12:31;;;;;;;;;;;8.40;85.00;;;;;;5031042;28;19932;-81
2022/09/21 02:14:57;;;;;;;;;;;8.40;85.20;;;;;;5050939;28;20008;-82
2022/09/21 02:17:43;;;;;;;;;;;8.50;85.10;;;;;;5051960;28;19924;-81
2022/09/21 02:20:18;;;;;;;;;;;8.40;85.50;;;;;;5053739;28;19913;-81
2022/09/21 02:23:02;;;;;;;;;;;8.50;85.40;;;;;;5028410;28;20027;-81
2022/09/21 02:25:31;;;;;;;;;;;8.50;84.80;;;;;;5031790;28;19920;-81
2022/09/21 02:28:07;;;;;;;;;;;8.50;84.70;;;;;;5030919;28;19999;-80
2022/09/21 02:30:33;;;;;;;;;;;8.40;85.20;;;;;;5048164;28;19924;-81
2022/09/21 02:33:08;;;;;;;;;;;8.40;85.40;;;;;;5046970;28;19917;-80
2022/09/21 02:35:39;;;;;;;;;;;8.40;85.30;;;;;;5050202;28;19921;-81
2022/09/21 02:38:07;;;;;;;;;;;8.50;85.20;;;;;;5030131;28;19920;-81
2022/09/21 02:40:32;;;;;;;;;;;8.40;85.30;;;;;;5031783;28;20274;-81
2022/09/21 02:43:01;;;;;;;;;;;8.40;85.20;;;;;;5055571;28;19939;-79
2022/09/21 02:45:31;;;;;;;;;;;8.40;84.60;;;;;;5071114;28;20031;-79
2022/09/21 02:47:59;;;;;;;;;;;8.50;84.60;;;;;;5046654;28;20008;-80
2022/09/21 02:50:34;;;;;;;;;;;8.40;84.90;;;;;;5045461;28;19924;-81
2022/09/21 02:53:01;;;;;;;;;;;8.40;85.10;;;;;;5033653;28;19917;-80
2022/09/21 02:55:27;;;;;;;;;;;8.30;85.20;;;;;;5060952;28;19917;-80
2022/09/21 02:57:54;;;;;;;;;;;8.50;84.60;;;;;;5064308;28;19917;-80
2022/09/21 03:00:20;;;;;;;;;;;8.40;84.90;;;;;;5047549;28;19917;-80
2022/09/21 03:02:45;;;;;;;;;;;8.40;85.00;;;;;;5040591;28;19912;-80
2022/09/21 03:05:11;;;;;;;;;;;8.30;85.00;;;;;;5034293;28;19913;-81
2022/09/21 03:07:37;;;;;;;;;;;8.30;84.70;;;;;;5033727;28;19921;-80
2022/09/21 03:10:03;;;;;;;;;;;8.20;84.90;;;;;;5041948;28;19928;-81
2022/09/21 03:12:31;;;;;;;;;;;8.30;84.80;;;;;;5032929;28;19919;-81
2022/09/21 03:14:57;;;;;;;;;;;8.10;85.00;;;;;;5050144;28;19978;-80
2022/09/21 03:17:23;;;;;;;;;;;8.10;84.80;;;;;;5031140;28;20357;-80
2022/09/21 03:19:48;;;;;;;;;;;8.20;84.80;;;;;;5043396;28;19999;-81
2022/09/21 03:22:15;;;;;;;;;;;8.30;84.80;;;;;;5028725;28;19921;-79
2022/09/21 03:24:44;;;;;;;;;;;8.30;84.80;;;;;;5032061;28;19916;-80
2022/09/21 03:27:09;;;;;;;;;;;8.20;85.00;;;;;;5032146;28;19919;-81
2022/09/21 03:29:35;;;;;;;;;;;8.10;84.80;;;;;;5028809;28;19913;-81
2022/09/21 03:32:00;;;;;;;;;;;8.10;84.80;;;;;;5045521;28;19917;-81
2022/09/21 03:34:26;;;;;;;;;;;8.10;84.70;;;;;;5045556;28;19974;-81
2022/09/21 03:36:51;;;;;;;;;;;8.10;84.50;;;;;;5029939;28;19919;-80
2022/09/21 03:39:17;;;;;;;;;;;8.00;84.40;;;;;;5048151;28;20391;-80
2022/09/21 03:41:43;;;;;;;;;;;8.00;84.70;;;;;;5050724;28;20269;-81
2022/09/21 03:44:09;;;;;;;;;;;8.00;84.50;;;;;;5051613;28;19919;-81
2022/09/21 03:46:34;;;;;;;;;;;8.00;84.00;;;;;;5034890;28;19950;-80
2022/09/21 03:49:00;;;;;;;;;;;8.00;84.80;;;;;;5029505;28;19913;-80
2022/09/21 03:51:25;;;;;;;;;;;7.80;85.00;;;;;;5029529;28;19917;-80
2022/09/21 03:53:51;;;;;;;;;;;7.90;85.30;;;;;;5049348;28;19913;-80
2022/09/21 03:56:17;;;;;;;;;;;7.90;84.50;;;;;;5034130;28;19917;-80
2022/09/21 03:58:42;;;;;;;;;;;7.80;84.40;;;;;;5050066;28;19917;-80
2022/09/21 04:01:08;;;;;;;;;;;7.80;84.60;;;;;;5056942;28;19972;-79
2022/09/21 04:03:33;;;;;;;;;;;7.90;84.40;;;;;;5060444;28;20007;-81
2022/09/21 04:05:59;;;;;;;;;;;7.80;84.20;;;;;;5060125;28;19953;-81
2022/09/21 04:08:24;;;;;;;;;;;7.80;84.50;;;;;;5033477;28;19913;-81
2022/09/21 04:10:50;;;;;;;;;;;7.80;84.30;;;;;;5049791;28;20308;-80
2022/09/21 04:13:15;;;;;;;;;;;7.80;84.70;;;;;;5034412;28;20323;-81
2022/09/21 04:15:41;;;;;;;;;;;8.00;84.30;;;;;;5035591;28;20034;-81
2022/09/21 04:18:07;;;;;;;;;;;7.90;84.00;;;;;;5052877;28;19917;-80
2022/09/21 04:20:32;;;;;;;;;;;7.90;84.20;;;;;;5048805;28;19921;-80
2022/09/21 04:22:58;;;;;;;;;;;7.80;84.20;;;;;;5045674;28;20063;-79
2022/09/21 04:25:24;;;;;;;;;;;7.90;83.90;;;;;;5045920;28;19928;-81
2022/09/21 04:27:50;;;;;;;;;;;7.80;84.30;;;;;;5058075;28;20336;-81
2022/09/21 04:30:16;;;;;;;;;;;7.80;83.90;;;;;;5039526;28;19924;-81
2022/09/21 04:32:41;;;;;;;;;;;7.80;84.10;;;;;;5055676;28;19913;-81
2022/09/21 04:35:07;;;;;;;;;;;7.80;83.80;;;;;;5038999;28;20009;-81
2022/09/21 04:37:33;;;;;;;;;;;7.90;83.30;;;;;;5051982;28;19913;-81
2022/09/21 04:39:58;;;;;;;;;;;7.70;84.00;;;;;;5035553;28;19974;-81
2022/09/21 04:42:24;;;;;;;;;;;7.60;84.00;;;;;;5045842;28;19913;-82
2022/09/21 04:44:50;;;;;;;;;;;7.50;84.90;;;;;;5038425;28;19963;-81
2022/09/21 04:47:15;;;;;;;;;;;7.50;84.90;;;;;;5055735;28;19916;-79
2022/09/21 04:49:41;;;;;;;;;;;7.50;84.70;;;;;;5042268;28;20023;-84
2022/09/21 04:52:06;;;;;;;;;;;7.60;84.80;;;;;;5058049;28;19923;-81
2022/09/21 04:54:32;;;;;;;;;;;7.60;84.20;;;;;;5061859;28;19943;-80
2022/09/21 04:56:57;;;;;;;;;;;7.60;84.50;;;;;;5061277;28;19913;-81
2022/09/21 04:59:23;;;;;;;;;;;7.40;84.70;;;;;;5058631;28;19912;-82
2022/09/21 05:01:48;;;;;;;;;;;7.40;84.80;;;;;;5057605;28;19920;-80
2022/09/21 05:04:14;;;;;;;;;;;7.40;85.10;;;;;;5040114;28;19916;-82
2022/09/21 05:06:39;;;;;;;;;;;7.50;85.20;;;;;;5039607;28;19923;-78
2022/09/21 05:11:49;;;;;;;;;;;7.50;85.00;;;;;;5053548;28;19982;-78
2022/09/21 05:14:15;;;;;;;;;;;7.50;85.10;;;;;;5056082;28;19912;-80
2022/09/21 05:16:40;;;;;;;;;;;7.50;85.20;;;;;;5037991;28;19913;-78
2022/09/21 05:19:06;;;;;;;;;;;7.50;85.10;;;;;;5056042;28;19913;-78
2022/09/21 05:21:31;;;;;;;;;;;7.50;85.40;;;;;;5057897;28;19999;-79
2022/09/21 05:23:57;;;;;;;;;;;7.50;85.30;;;;;;5038509;28;19913;-78
2022/09/21 05:26:23;;;;;;;;;;;7.40;85.40;;;;;;5052684;28;20260;-83
2022/09/21 05:28:48;;;;;;;;;;;7.40;85.50;;;;;;5038796;28;21562;-83
2022/09/21 05:31:32;;;;;;;;;;;7.50;85.20;;;;;;5049378;28;20431;-84
2022/09/21 05:34:04;;;;;;;;;;;7.50;85.10;;;;;;5048509;28;20336;-81
2022/09/21 05:36:32;;;;;;;;;;;7.40;85.30;;;;;;5040718;28;19913;-82
2022/09/21 05:38:58;;;;;;;;;;;7.40;85.40;;;;;;5039610;28;19985;-83
2022/09/21 05:41:23;;;;;;;;;;;7.40;85.70;;;;;;5060298;28;19999;-83
2022/09/21 05:43:49;;;;;;;;;;;7.50;85.50;;;;;;5054571;28;19913;-81
2022/09/21 05:46:19;;;;;;;;;;;7.60;85.60;;;;;;5055390;28;19920;-82
2022/09/21 05:48:51;;;;;;;;;;;7.60;85.70;;;;;;5073254;28;19917;-82
2022/09/21 05:51:26;;;;;;;;;;;7.70;85.80;;;;;;5057469;28;19913;-82
2022/09/21 05:53:54;;;;;;;;;;;7.80;85.50;;;;;;5045514;28;19913;-83
2022/09/21 05:56:22;;;;;;;;;;;7.80;85.10;;;;;;5058782;28;19919;-83
2022/09/21 05:58:59;;;;;;;;;;;7.80;85.40;;;;;;5056964;28;19921;-83
2022/09/21 06:01:33;;;;;;;;;;;7.70;85.70;;;;;;5038425;28;19943;-82
2022/09/21 06:04:00;;;;;;;;;;;7.80;85.90;;;;;;5037532;28;19974;-82
2022/09/21 06:06:25;;;;;;;;;;;7.80;85.80;;;;;;5055231;28;19916;-82
2022/09/21 06:08:51;;;;;;;;;;;7.90;85.80;;;;;;5034133;28;19920;-82
2022/09/21 06:11:16;;;;;;;;;;;7.80;86.10;;;;;;5054927;28;19974;-82
2022/09/21 06:13:42;;;;;;;;;;;7.70;86.70;;;;;;5052271;28;20011;-84
2022/09/21 06:16:08;;;;;;;;;;;7.60;87.10;;;;;;5052940;28;20329;-81
2022/09/21 06:18:40;;;;;;;;;;;7.60;87.30;;;;;;5054094;28;19920;-81
2022/09/21 06:21:06;;;;;;;;;;;7.60;87.50;;;;;;5074327;28;19909;-82
2022/09/21 06:23:31;;;;;;;;;;;7.70;87.70;;;;;;5056663;28;19968;-82
2022/09/21 06:25:57;;;;;;;;;;;7.80;87.80;;;;;;5058531;28;19956;-83
2022/09/21 06:28:22;;;;;;;;;;;7.90;88.10;;;;;;5056086;28;19960;-85
2022/09/21 06:30:51;;;;;;;;;;;8.00;87.90;;;;;;5058135;28;19913;-82
2022/09/21 06:33:20;;;;;;;;;;;8.10;87.80;;;;;;5034996;28;19917;-83
2022/09/21 06:35:56;;;;;;;;;;;8.10;88.30;;;;;;5033602;28;19916;-83
2022/09/21 06:38:22;;;;;;;;;;;8.10;88.40;;;;;;5034846;28;20023;-83
2022/09/21 06:40:47;;;;;;;;;;;8.20;88.60;;;;;;5036628;28;20387;-82
2022/09/21 06:43:13;;;;;;;;;;;8.30;88.70;;;;;;5053115;28;19939;-83
2022/09/21 06:45:38;;;;;;;;;;;8.40;89.00;;;;;;5094592;22;19932;-85
2022/09/21 06:48:04;;;;;;;;;;;8.50;89.30;;;;;;5058359;28;20307;-86
2022/09/21 06:50:29;;;;;;;;;;;8.60;89.20;;;;;;5074457;28;20309;-85
2022/09/21 06:52:58;;;;;;;;;;;8.70;89.20;;;;;;5089177;28;19935;-86
2022/09/21 06:55:23;;;;;;;;;;;8.80;89.20;;;;;;5095298;28;20405;-85
2022/09/21 06:57:50;;;;;;;;;;;8.80;89.30;;;;;;5058630;28;19908;-85
2022/09/21 07:00:16;;;;;;;;;;;8.90;89.10;;;;;;5056428;28;19912;-85
2022/09/21 07:02:43;;;;;;;;;;;9.00;89.00;;;;;;5049382;28;19912;-85
2022/09/21 07:05:08;;;;;;;;;;;9.10;88.90;;;;;;5054959;28;19913;-85
2022/09/21 07:07:35;;;;;;;;;;;9.10;89.00;;;;;;5058408;28;19927;-85
2022/09/21 07:10:00;;;;;;;;;;;9.20;89.20;;;;;;5051047;28;19917;-85
2022/09/21 07:12:27;;;;;;;;;;;9.30;89.30;;;;;;5054441;28;20468;-85
2022/09/21 07:14:52;;;;;;;;;;;9.30;89.10;;;;;;5076264;28;20291;-85
2022/09/21 07:17:18;;;;;;;;;;;9.50;89.10;;;;;;5058172;28;19909;-85
2022/09/21 07:19:43;;;;;;;;;;;9.50;89.20;;;;;;5073640;28;19913;-85
2022/09/21 07:22:09;;;;;;;;;;;9.50;89.10;;;;;;5050127;28;19909;-85
2022/09/21 07:24:34;;;;;;;;;;;9.60;89.30;;;;;;5053226;28;19931;-85
2022/09/21 07:27:00;;;;;;;;;;;9.70;89.20;;;;;;5061705;28;19994;-85
2022/09/21 07:29:25;;;;;;;;;;;9.70;89.30;;;;;;5073735;28;19912;-85
2022/09/21 07:31:50;;;;;;;;;;;9.80;89.30;;;;;;5064411;28;19955;-85
2022/09/21 07:34:18;;;;;;;;;;;9.80;89.30;;;;;;5052797;28;21569;-85
2022/09/21 07:36:44;;;;;;;;;;;10.00;89.30;;;;;;5048028;28;19947;-85
2022/09/21 07:39:09;;;;;;;;;;;10.10;89.40;;;;;;5058226;28;19908;-86
2022/09/21 07:41:35;;;;;;;;;;;10.10;89.20;;;;;;5050860;28;19912;-86
2022/09/21 07:44:01;;;;;;;;;;;10.10;89.20;;;;;;5040275;28;20283;-85
2022/09/21 07:46:26;;;;;;;;;;;10.20;89.10;;;;;;5055965;28;19956;-85
2022/09/21 07:48:52;;;;;;;;;;;10.30;89.20;;;;;;5074565;28;19912;-86
2022/09/21 07:51:18;;;;;;;;;;;10.30;89.10;;;;;;5057008;28;20061;-85
2022/09/21 07:53:43;;;;;;;;;;;10.40;89.00;;;;;;5055966;28;19909;-85
2022/09/21 07:56:10;;;;;;;;;;;10.60;88.60;;;;;;5055313;28;19908;-86
2022/09/21 08:01:20;;;;;;;;;;;10.60;88.40;;;;;;5054191;28;19915;-86
2022/09/21 08:03:49;;;;;;;;;;;10.80;88.20;;;;;;5071909;28;19964;-85
2022/09/21 08:06:15;;;;;;;;;;;10.90;88.00;;;;;;5049185;28;19916;-86
2022/09/21 08:08:40;;;;;;;;;;;10.80;87.70;;;;;;5055687;28;19912;-86
2022/09/21 08:11:06;;;;;;;;;;;11.00;87.50;;;;;;5073800;28;19951;-85
2022/09/21 08:13:32;;;;;;;;;;;11.00;87.20;;;;;;5037868;28;19919;-85
2022/09/21 08:15:58;;;;;;;;;;;11.00;86.70;;;;;;5055051;28;19909;-85
2022/09/21 08:18:23;;;;;;;;;;;11.10;86.30;;;;;;5065175;28;19913;-85
2022/09/21 08:20:56;;;;;;;;;;;11.20;86.00;;;;;;5056897;28;19970;-85
2022/09/21 08:23:22;;;;;;;;;;;11.50;85.20;;;;;;5044036;28;19921;-85
2022/09/21 08:25:47;;;;;;;;;;;11.50;84.50;;;;;;5055425;28;19939;-85
2022/09/21 08:28:13;;;;;;;;;;;11.50;84.20;;;;;;5067663;28;19956;-85
2022/09/21 08:30:39;;;;;;;;;;;11.50;84.20;;;;;;5073885;28;19948;-85
2022/09/21 08:33:05;;;;;;;;;;;11.60;83.80;;;;;;5045726;28;19970;-85
2022/09/21 08:35:32;;;;;;;;;;;11.80;82.90;;;;;;5072450;28;20007;-85
2022/09/21 08:37:58;;;;;;;;;;;11.90;82.60;;;;;;5054226;28;20379;-85
2022/09/21 08:40:23;;;;;;;;;;;12.00;82.90;;;;;;5046091;28;19915;-85
2022/09/21 08:42:52;;;;;;;;;;;11.90;83.20;;;;;;5054353;28;20297;-85
2022/09/21 08:45:18;;;;;;;;;;;12.10;82.90;;;;;;5068588;28;19916;-85
2022/09/21 08:47:46;;;;;;;;;;;12.20;81.80;;;;;;5055537;28;20556;-85
2022/09/21 08:50:23;;;;;;;;;;;12.30;81.30;;;;;;5055307;28;19912;-85
2022/09/21 08:52:50;;;;;;;;;;;12.30;81.60;;;;;;5050843;28;19912;-85
2022/09/21 08:55:17;;;;;;;;;;;12.40;80.70;;;;;;5068104;28;19912;-85
2022/09/21 08:57:43;;;;;;;;;;;12.50;79.90;;;;;;5065881;28;19920;-85
2022/09/21 09:00:12;;;;;;;;;;;12.40;78.90;;;;;;5061350;28;20358;-85
2022/09/21 09:02:41;;;;;;;;;;;12.30;78.90;;;;;;5075425;28;19917;-86
2022/09/21 09:05:17;;;;;;;;;;;12.50;79.50;;;;;;5059358;28;19976;-85
2022/09/21 09:07:50;;;;;;;;;;;12.60;77.70;;;;;;5077327;28;19917;-85
2022/09/21 09:10:24;;;;;;;;;;;12.60;78.00;;;;;;5056676;28;20406;-85
2022/09/21 09:12:56;;;;;;;;;;;12.70;77.40;;;;;;5075733;28;20065;-85
2022/09/21 09:15:35;;;;;;;;;;;12.60;78.00;;;;;;5057817;28;19908;-85
2022/09/21 09:18:10;;;;;;;;;;;12.70;76.50;;;;;;5059685;28;19918;-85
2022/09/21 09:20:44;;;;;;;;;;;12.60;75.10;;;;;;5069318;28;19919;-85
2022/09/21 09:23:10;;;;;;;;;;;12.80;77.70;;;;;;5062110;28;20440;-84
2022/09/21 09:25:40;;;;;;;;;;;12.90;75.70;;;;;;5075512;28;19908;-85
2022/09/21 09:28:20;;;;;;;;;;;12.80;76.20;;;;;;5064456;28;19946;-86
2022/09/21 09:30:48;;;;;;;;;;;12.90;74.90;;;;;;5087855;28;20000;-84
2022/09/21 09:33:22;;;;;;;;;;;13.10;74.00;;;;;;5067118;28;19966;-84
2022/09/21 09:35:51;;;;;;;;;;;13.20;74.80;;;;;;5078867;28;19919;-84
2022/09/21 09:38:26;;;;;;;;;;;13.10;74.50;;;;;;5052575;28;19970;-84
2022/09/21 09:41:04;;;;;;;;;;;13.10;74.50;;;;;;5052511;28;19920;-84
2022/09/21 09:43:48;;;;;;;;;;;13.10;75.30;;;;;;5053216;28;20057;-84
2022/09/21 09:46:23;;;;;;;;;;;13.20;73.90;;;;;;5058386;28;19920;-84
2022/09/21 09:49:06;;;;;;;;;;;13.30;73.90;;;;;;5053784;28;19959;-86
2022/09/21 09:51:34;;;;;;;;;;;13.30;75.60;;;;;;5045017;28;20409;-85
2022/09/21 09:54:00;;;;;;;;;;;13.40;76.70;;;;;;5041982;28;19909;-86
2022/09/21 09:56:25;;;;;;;;;;;13.30;73.30;;;;;;5045539;28;19909;-87
2022/09/21 09:58:53;;;;;;;;;;;13.50;72.70;;;;;;5052641;28;20115;-88
2022/09/21 10:01:37;;;;;;;;;;;13.50;72.60;;;;;;5077885;28;19992;-86
2022/09/21 10:04:04;;;;;;;;;;;13.50;72.80;;;;;;5058538;28;19931;-87
2022/09/21 10:06:30;;;;;;;;;;;13.40;73.20;;;;;;5052791;28;20665;-85
2022/09/21 10:08:55;;;;;;;;;;;13.40;74.10;;;;;;5058039;28;19919;-85
2022/09/21 10:11:32;;;;;;;;;;;13.50;73.30;;;;;;5061122;28;19916;-86
2022/09/21 10:14:05;;;;;;;;;;;13.60;71.40;;;;;;5057551;28;20386;-86
2022/09/21 10:16:31;;;;;;;;;;;13.60;71.50;;;;;;5057844;28;19966;-85
2022/09/21 10:19:00;;;;;;;;;;;13.70;69.60;;;;;;5061090;28;19917;-86
2022/09/21 10:21:31;;;;;;;;;;;13.80;69.70;;;;;;5051509;28;19913;-85
2022/09/21 10:24:00;;;;;;;;;;;13.80;70.40;;;;;;5070899;28;19917;-86
2022/09/21 10:26:53;;;;;;;;;;;13.80;69.50;;;;;;5086475;28;20008;-85
2022/09/21 10:29:21;;;;;;;;;;;13.80;69.30;;;;;;5043493;28;20371;-86
2022/09/21 10:31:53;;;;;;;;;;;13.80;67.10;;;;;;5068417;28;20015;-85
2022/09/21 10:34:18;;;;;;;;;;;13.80;69.80;;;;;;5045312;28;20003;-85
2022/09/21 10:36:50;;;;;;;;;;;13.70;71.20;;;;;;5072565;28;19944;-84
2022/09/21 10:39:21;;;;;;;;;;;13.70;72.30;;;;;;5071156;28;19958;-86
2022/09/21 10:41:47;;;;;;;;;;;13.70;72.30;;;;;;5052701;28;19912;-85
2022/09/21 10:44:15;;;;;;;;;;;13.80;71.90;;;;;;5054994;28;19912;-85
2022/09/21 10:46:40;;;;;;;;;;;13.90;72.40;;;;;;5053759;28;19917;-84
2022/09/21 10:49:12;;;;;;;;;;;13.80;72.20;;;;;;5047041;28;19924;-83
2022/09/21 10:51:38;;;;;;;;;;;13.70;72.90;;;;;;5072632;28;20325;-84
2022/09/21 10:54:06;;;;;;;;;;;13.60;73.60;;;;;;5070967;28;19965;-84
2022/09/21 10:56:32;;;;;;;;;;;13.60;74.00;;;;;;5054629;28;19912;-84
2022/09/21 10:59:12;;;;;;;;;;;13.60;74.40;;;;;;5050182;28;19935;-82
2022/09/21 11:01:45;;;;;;;;;;;13.60;72.40;;;;;;5071261;28;19966;-84
2022/09/21 11:04:16;;;;;;;;;;;13.90;70.70;;;;;;5055640;28;19912;-84
2022/09/21 11:06:44;;;;;;;;;;;14.10;67.80;;;;;;5047051;28;20003;-85
2022/09/21 11:09:19;;;;;;;;;;;14.10;67.60;;;;;;5053024;28;19913;-85
2022/09/21 11:11:55;;;;;;;;;;;14.10;68.80;;;;;;5075496;28;19916;-84
2022/09/21 11:14:23;;;;;;;;;;;14.20;70.20;;;;;;5045617;28;19913;-83
2022/09/21 11:16:55;;;;;;;;;;;14.40;67.90;;;;;;5064753;28;19925;-82
2022/09/21 11:19:35;;;;;;;;;;;14.50;67.60;;;;;;5047057;28;19920;-82
2022/09/21 11:22:11;;;;;;;;;;;14.60;64.60;;;;;;5067740;28;20370;-82
2022/09/21 11:24:55;;;;;;;;;;;14.70;64.70;;;;;;5063803;28;19913;-83
2022/09/21 11:27:21;;;;;;;;;;;14.80;62.10;;;;;;5046243;28;19952;-82
2022/09/21 11:30:06;;;;;;;;;;;15.10;59.80;;;;;;5066973;28;19967;-83
2022/09/21 11:32:34;;;;;;;;;;;15.00;59.80;;;;;;5072733;28;20693;-83
2022/09/21 11:35:10;;;;;;;;;;;14.80;61.00;;;;;;5077886;28;19962;-82
2022/09/21 11:37:54;;;;;;;;;;;14.70;62.00;;;;;;5074706;28;19920;-83
2022/09/21 11:40:34;;;;;;;;;;;14.50;62.60;;;;;;5064034;28;19935;-83
2022/09/21 11:43:03;;;;;;;;;;;14.50;61.10;;;;;;5068758;28;20561;-83
2022/09/21 11:45:46;;;;;;;;;;;14.60;60.40;;;;;;5057901;28;19915;-83
2022/09/21 11:48:24;;;;;;;;;;;14.70;59.60;;;;;;5075060;28;19923;-82
2022/09/21 11:51:04;;;;;;;;;;;14.60;59.40;;;;;;5079318;28;19932;-83
2022/09/21 11:53:55;;;;;;;;;;;14.60;60.30;;;;;;5073619;28;19916;-82
2022/09/21 11:56:28;;;;;;;;;;;14.50;59.10;;;;;;5018835;28;19912;-84
2022/09/21 11:59:05;;;;;;;;;;;14.40;61.20;;;;;;5065525;28;19913;-82
2022/09/21 12:01:54;;;;;;;;;;;14.80;59.40;;;;;;5053617;28;19969;-82
2022/09/21 12:04:19;;;;;;;;;;;14.90;60.20;;;;;;5068441;28;20011;-83
2022/09/21 12:06:51;;;;;;;;;;;15.10;57.90;;;;;;5059635;28;20026;-82
2022/09/21 12:09:20;;;;;;;;;;;15.10;57.90;;;;;;5080022;28;19912;-82
2022/09/21 12:11:49;;;;;;;;;;;15.30;57.90;;;;;;5059592;28;19916;-83
2022/09/21 12:14:32;;;;;;;;;;;15.20;58.20;;;;;;5050340;28;19944;-83
2022/09/21 12:17:24;;;;;;;;;;;15.20;59.70;;;;;;5071257;28;19970;-83
2022/09/21 12:20:01;;;;;;;;;;;15.20;59.40;;;;;;5043934;28;19943;-83
2022/09/21 12:22:32;;;;;;;;;;;15.60;56.10;;;;;;5085649;28;19916;-84
2022/09/21 12:25:01;;;;;;;;;;;15.60;54.30;;;;;;5100690;28;19923;-83
2022/09/21 12:27:31;;;;;;;;;;;15.60;54.10;;;;;;5052370;28;19921;-85
2022/09/21 12:30:02;;;;;;;;;;;15.60;55.10;;;;;;5063284;28;20003;-82
2022/09/21 12:32:30;;;;;;;;;;;15.50;57.30;;;;;;5068963;28;19920;-83
2022/09/21 12:35:01;;;;;;;;;;;15.60;59.30;;;;;;5060045;28;19909;-83
2022/09/21 12:37:37;;;;;;;;;;;15.90;58.30;;;;;;5066475;28;19920;-82
2022/09/21 12:40:23;;;;;;;;;;;15.80;57.30;;;;;;5036464;28;20375;-83
2022/09/21 12:42:55;;;;;;;;;;;15.90;58.30;;;;;;5050618;28;20026;-82
2022/09/21 12:45:25;;;;;;;;;;;16.00;58.60;;;;;;5052177;28;19913;-83
2022/09/21 12:47:55;;;;;;;;;;;16.10;58.10;;;;;;5101242;22;19928;-81
2022/09/21 12:50:25;;;;;;;;;;;16.40;55.40;;;;;;5042162;28;19916;-80
2022/09/21 12:52:51;;;;;;;;;;;16.10;57.40;;;;;;5045108;28;19919;-81
2022/09/21 12:55:31;;;;;;;;;;;16.00;57.60;;;;;;5057599;28;19908;-80
2022/09/21 12:58:00;;;;;;;;;;;16.00;59.00;;;;;;5066122;28;19916;-80
2022/09/21 13:00:29;;;;;;;;;;;16.00;58.00;;;;;;5070608;28;19987;-81
2022/09/21 13:03:03;;;;;;;;;;;16.20;56.90;;;;;;5052818;28;19936;-83
2022/09/21 13:05:37;;;;;;;;;;;16.20;55.90;;;;;;5045694;28;20392;-82
2022/09/21 13:08:06;;;;;;;;;;;16.30;55.50;;;;;;5063821;28;19913;-80
2022/09/21 13:10:42;;;;;;;;;;;16.30;54.50;;;;;;5058167;28;20411;-84
2022/09/21 13:13:34;;;;;;;;;;;16.10;55.90;;;;;;5068941;28;19912;-84
2022/09/21 13:16:00;;;;;;;;;;;16.00;56.80;;;;;;5039237;28;19919;-85
2022/09/21 13:18:33;;;;;;;;;;;15.90;56.90;;;;;;5047090;28;19912;-84
2022/09/21 13:21:00;;;;;;;;;;;16.00;54.70;;;;;;5054735;28;19954;-85
2022/09/21 13:23:32;;;;;;;;;;;15.90;56.80;;;;;;5061239;28;19917;-83
2022/09/21 13:26:03;;;;;;;;;;;15.80;55.40;;;;;;5078157;28;19962;-84
2022/09/21 13:28:40;;;;;;;;;;;15.60;55.30;;;;;;5072727;28;19912;-83
2022/09/21 13:31:18;;;;;;;;;;;15.60;56.90;;;;;;5037603;28;19939;-83
2022/09/21 13:34:02;;;;;;;;;;;15.80;54.50;;;;;;5049868;28;19935;-84
2022/09/21 13:36:29;;;;;;;;;;;15.90;53.30;;;;;;5072778;28;19912;-85
2022/09/21 13:38:56;;;;;;;;;;;15.80;54.60;;;;;;5061067;28;19917;-85
2022/09/21 13:41:26;;;;;;;;;;;15.70;54.10;;;;;;5063333;28;19912;-84
2022/09/21 13:43:54;;;;;;;;;;;15.60;55.10;;;;;;5060767;28;19912;-83
2022/09/21 13:46:35;;;;;;;;;;;15.90;52.20;;;;;;5063018;28;19913;-84
2022/09/21 13:49:03;;;;;;;;;;;15.80;53.80;;;;;;5037904;28;19917;-82
2022/09/21 13:51:32;;;;;;;;;;;15.60;55.30;;;;;;5052151;28;19912;-84
2022/09/21 13:53:59;;;;;;;;;;;15.80;55.00;;;;;;5053740;28;19962;-83
2022/09/21 13:56:25;;;;;;;;;;;15.70;53.30;;;;;;5043287;28;20003;-85
2022/09/21 13:58:52;;;;;;;;;;;16.00;52.60;;;;;;5036415;28;20358;-83
2022/09/21 14:01:20;;;;;;;;;;;16.00;53.90;;;;;;5068198;28;19908;-82
2022/09/21 14:03:56;;;;;;;;;;;16.00;55.40;;;;;;5058159;28;19946;-83
2022/09/21 14:06:29;;;;;;;;;;;16.30;53.60;;;;;;5052216;28;19919;-84
2022/09/21 14:08:58;;;;;;;;;;;16.50;51.70;;;;;;5068202;28;19923;-83
2022/09/21 14:11:33;;;;;;;;;;;16.50;53.20;;;;;;5037749;28;20010;-84
2022/09/21 14:13:58;;;;;;;;;;;16.60;52.40;;;;;;5044420;28;19913;-84
2022/09/21 14:16:25;;;;;;;;;;;16.70;50.60;;;;;;5069460;28;19920;-80
2022/09/21 14:18:51;;;;;;;;;;;16.70;50.10;;;;;;5046607;28;19951;-80
2022/09/21 14:21:17;;;;;;;;;;;16.60;51.10;;;;;;5051704;28;19959;-80
2022/09/21 14:24:03;;;;;;;;;;;16.50;51.30;;;;;;5042859;28;20391;-80
2022/09/21 14:26:33;;;;;;;;;;;16.60;49.80;;;;;;5051660;28;19920;-80
2022/09/21 14:29:06;;;;;;;;;;;16.80;49.00;;;;;;5049246;28;19909;-80
2022/09/21 14:31:33;;;;;;;;;;;16.70;50.60;;;;;;5046031;28;19924;-79
2022/09/21 14:34:01;;;;;;;;;;;16.60;50.90;;;;;;5049468;28;19992;-81
2022/09/21 14:36:33;;;;;;;;;;;16.60;51.00;;;;;;5047189;28;20006;-80
2022/09/21 14:39:01;;;;;;;;;;;16.60;50.30;;;;;;5065941;28;19966;-82
2022/09/21 14:41:32;;;;;;;;;;;16.60;50.60;;;;;;5047911;28;20003;-82